Terminal Aerodrome Forecast
Issued by NWS

Home | Current Version | Previous Version | Text Only | Print | Product List | Glossary On
Versions: 1 2 3 4 5 6 7 8 9 10 11 12 13 14 15 16 17 18 19 20 21 22 23 24 25 26 27 28 29
000
FTUS43 KLOT 291720
TAFDPA
TAF
KDPA 291720Z 2918/3018 13007KT P6SM SCT025 BKN040 BKN250
     FM291900 09009KT P6SM VCTS SCT025 BKN040CB BKN250
     FM292200 09009KT P6SM SCT030 BKN250
     FM300200 11003KT P6SM FEW150 SCT250
     FM300900 VRB02KT 4SM BR FEW100 SCT200
     FM301500 24005KT P6SM SCT040 BKN080=

USA.gov is the U.S. government's official web portal to all federal, state and local government web resources and services.